首页
METAR-TAF:

METAR-TAF

机场 :

大急流城, 密歇根州, 美国

纬度: 42-52-51N, 经度: 085-31-22W, 海拔: 242米

当前天气观测

该预报发布于20分钟前的23:53 UTC
风速11节,风向西南
温度 22°C
湿度 83%
气压 1003 hPa
能見度: 16.1公里
多云层高于1600英尺
多云层高于7000英尺
多云层高于16000英尺

METAR: KGRR 242353Z 23011KT 10SM BKN016 BKN070 BKN160 22/19 A2962 RMK AO2 SLP026 60050 T02220189 10244 20206 53000

时间: 20:13 (00:13 UTC)

预报

该预报发布于33分钟前的23:40 UTC
预报有效从25日的 00点(UTC)到 25日的 24点(UTC)
风速12节,风向西转西南
能見度: 10公里
多云层高于1500英尺
附近有阵雨
从 25日的 0100点(UTC)
风速12节,风向西转西南,有时为20节阵风
能見度: 10公里
多云层高于2500英尺, 积雨云.
附近有雷暴
短暂存在
从 25日的 01点(UTC)到 25日的 02点(UTC)
能見度: 6.4公里
阴天层高于1500英尺, 积雨云.
雷暴, 雨, 轻雾
从 25日的 0300点(UTC)
风速12节,风向西转西南
能見度: 10公里
多云层高于4000英尺
附近有阵雨
从 25日的 0900点(UTC)
风速10节,风向西转西南
能見度: 10公里
多云层高于2500英尺
从 25日的 1200点(UTC)
风速10节,风向西转西南
能見度: 10公里
多云层高于10000英尺

TAF: KGRR 242340Z 2500/2524 24012KT P6SM VCSH BKN015 FM250100 24012G20KT P6SM VCTS BKN025CB TEMPO 2501/2502 4SM TSRA BR OVC015CB FM250300 24012KT P6SM VCSH BKN040 FM250900 24010KT P6SM BKN025 FM251200 25010KT P6SM BKN100

超过4000个机场的气象观测和天气预报(METAR&TAF报告)。

可查询的气象台以黄色和红色小点在地图上表示。

将鼠标移到小点上方,可查看气象台名称。

然后点击查看天气观测和预报。

如需切换地图:点击带黑十字的绿色按钮放大地图;点击带横线的绿色按钮缩小地图;或者点击绿色箭头查看邻近地区的地图。


METAR-TAF: